Time;durP1;ratioP1;P1;durP2;ratioP2;P2;SDS_P1;SDS_P2;PMS_P1;PMS_P2;Temp;Humidity;BMP_temperature;BMP_pressure;BME280_temperature;BME280_humidity;BME280_pressure;Samples;Min_cycle;Max_cycle;Signal;HPM_P1;HPM_P2
2022/01/02 00:00:41;;;;;;;;;;;;;;;4.99;93.16;97141.72;5043417;28;19978;-76
2022/01/02 00:03:28;;;;;;;;;;;;;;;4.99;92.46;97148.72;5062374;28;20308;-77
2022/01/02 00:06:14;;;;;;;;;;;;;;;5.00;92.00;97151.16;5052808;28;19951;-76
2022/01/02 00:09:06;;;;;;;;;;;;;;;4.99;91.63;97144.31;5068538;28;19954;-76
2022/01/02 00:11:52;;;;;;;;;;;;;;;4.98;90.85;97141.91;5056521;28;19979;-76
2022/01/02 00:14:37;;;;;;;;;;;;;;;4.94;90.33;97138.81;5068922;28;20392;-76
2022/01/02 00:17:23;;;;;;;;;;;;;;;4.91;90.14;97136.53;5043821;28;19955;-76
2022/01/02 00:20:12;;;;;;;;;;;;;;;4.88;90.41;97124.69;5047009;28;19958;-75
2022/01/02 00:22:56;;;;;;;;;;;;;;;4.89;90.46;97120.28;5061051;28;19967;-76
2022/01/02 00:25:41;;;;;;;;;;;;;;;4.88;90.22;97121.28;5063429;28;19953;-76
2022/01/02 00:28:26;;;;;;;;;;;;;;;4.86;90.33;97125.81;5060177;28;19964;-77
2022/01/02 00:31:11;;;;;;;;;;;;;;;4.84;90.40;97132.97;5058322;28;20394;-76
2022/01/02 00:33:56;;;;;;;;;;;;;;;4.84;90.94;97140.78;5048179;28;19964;-76
2022/01/02 00:36:40;;;;;;;;;;;;;;;4.84;92.43;97127.78;5051596;28;19962;-76
2022/01/02 00:39:25;;;;;;;;;;;;;;;4.84;92.21;97133.78;5066827;28;19965;-76
2022/01/02 00:42:10;;;;;;;;;;;;;;;4.86;91.83;97131.84;5055514;28;19975;-76
2022/01/02 00:45:04;;;;;;;;;;;;;;;4.86;91.81;97121.44;5056201;28;19974;-76
2022/01/02 00:47:59;;;;;;;;;;;;;;;4.86;91.50;97108.44;5057919;28;20330;-76
2022/01/02 00:50:51;;;;;;;;;;;;;;;4.84;91.42;97113.00;5056251;28;19999;-76
2022/01/02 00:53:36;;;;;;;;;;;;;;;4.83;91.20;97102.75;5059695;28;20431;-76
2022/01/02 00:56:24;;;;;;;;;;;;;;;4.81;91.12;97102.13;5052479;28;19947;-78
2022/01/02 00:59:12;;;;;;;;;;;;;;;4.77;91.13;97099.03;5034558;28;20420;-76
2022/01/02 01:02:02;;;;;;;;;;;;;;;4.75;91.52;97100.19;5049830;28;19964;-76
2022/01/02 01:04:48;;;;;;;;;;;;;;;4.74;91.96;97101.16;5034085;28;19957;-76
2022/01/02 01:07:32;;;;;;;;;;;;;;;4.71;91.90;97098.91;5052627;28;19956;-76
2022/01/02 01:10:18;;;;;;;;;;;;;;;4.70;92.03;97094.66;5058068;28;19963;-76
2022/01/02 01:13:04;;;;;;;;;;;;;;;4.69;91.66;97088.66;5054167;28;20394;-76
2022/01/02 01:15:48;;;;;;;;;;;;;;;4.68;91.73;97085.25;5035238;28;20392;-76
2022/01/02 01:18:32;;;;;;;;;;;;;;;4.67;91.58;97083.63;5043644;28;19964;-76
2022/01/02 01:21:17;;;;;;;;;;;;;;;4.67;91.47;97088.81;5060418;28;20024;-76
2022/01/02 01:24:01;;;;;;;;;;;;;;;4.66;91.25;97084.63;5041575;28;20398;-76
2022/01/02 01:26:53;;;;;;;;;;;;;;;4.62;91.32;97083.31;5060373;28;20345;-77
2022/01/02 01:29:38;;;;;;;;;;;;;;;4.61;91.32;97092.06;5072482;28;19978;-76
2022/01/02 01:32:22;;;;;;;;;;;;;;;4.61;91.10;97088.66;5064653;28;19962;-76
2022/01/02 01:35:07;;;;;;;;;;;;;;;4.59;90.56;97086.22;5060344;28;19962;-76
2022/01/02 01:37:51;;;;;;;;;;;;;;;4.56;90.23;97091.75;5066127;28;19959;-76
2022/01/02 01:40:39;;;;;;;;;;;;;;;4.53;89.85;97105.06;5030496;28;19967;-76
2022/01/02 01:43:39;;;;;;;;;;;;;;;4.50;89.61;97096.81;5041196;28;19956;-76
2022/01/02 01:46:24;;;;;;;;;;;;;;;4.47;89.81;97092.72;5050117;28;19961;-76
2022/01/02 01:49:15;;;;;;;;;;;;;;;4.45;90.04;97092.91;5057492;28;19961;-77
2022/01/02 01:52:00;;;;;;;;;;;;;;;4.44;90.18;97082.69;5057148;28;19953;-76
2022/01/02 01:54:44;;;;;;;;;;;;;;;4.42;90.58;97080.25;5063251;28;19959;-76
2022/01/02 01:57:28;;;;;;;;;;;;;;;4.42;90.35;97079.44;5058345;28;19968;-76
2022/01/02 02:00:15;;;;;;;;;;;;;;;4.40;90.37;97087.38;5063859;28;19960;-76
2022/01/02 02:03:00;;;;;;;;;;;;;;;4.40;90.19;97094.38;5055051;28;20416;-76
2022/01/02 02:05:44;;;;;;;;;;;;;;;4.38;90.31;97083.31;5065003;28;19960;-76
2022/01/02 02:08:28;;;;;;;;;;;;;;;4.38;90.37;97078.13;5047528;28;19953;-76
2022/01/02 02:11:13;;;;;;;;;;;;;;;4.37;90.29;97076.53;5060315;28;19961;-76
2022/01/02 02:13:58;;;;;;;;;;;;;;;4.36;89.84;97082.69;5053436;28;19947;-76
2022/01/02 02:16:43;;;;;;;;;;;;;;;4.35;89.77;97070.69;5063737;28;19965;-76
2022/01/02 02:19:27;;;;;;;;;;;;;;;4.33;89.87;97072.63;5064957;28;20406;-76
2022/01/02 02:22:12;;;;;;;;;;;;;;;4.28;89.69;97065.31;5037884;28;20359;-76
2022/01/02 02:24:56;;;;;;;;;;;;;;;4.23;88.88;97050.22;5055785;28;19958;-75
2022/01/02 02:27:47;;;;;;;;;;;;;;;4.20;88.31;97047.97;5046507;28;19957;-76
2022/01/02 02:30:33;;;;;;;;;;;;;;;4.13;88.54;97044.38;5045776;28;19959;-76
2022/01/02 02:33:18;;;;;;;;;;;;;;;4.13;88.83;97043.56;5045771;28;19954;-76
2022/01/02 02:36:02;;;;;;;;;;;;;;;4.14;89.74;97050.41;5060409;28;19959;-76
2022/01/02 02:38:47;;;;;;;;;;;;;;;4.13;89.76;97046.97;5063923;28;19963;-76
2022/01/02 02:41:35;;;;;;;;;;;;;;;4.12;89.89;97040.19;5037706;28;20430;-76
2022/01/02 02:44:33;;;;;;;;;;;;;;;4.12;89.49;97034.97;5070342;28;20404;-76
2022/01/02 02:50:21;;;;;;;;;;;;;;;4.03;89.01;97015.19;5049768;28;19979;-76
2022/01/02 02:53:05;;;;;;;;;;;;;;;4.01;89.07;97015.34;5069483;28;19971;-76
2022/01/02 02:55:55;;;;;;;;;;;;;;;4.01;89.70;97004.97;5062239;28;19969;-76
2022/01/02 02:58:41;;;;;;;;;;;;;;;4.02;89.79;97003.19;5050050;28;20410;-76
2022/01/02 03:01:26;;;;;;;;;;;;;;;4.03;90.10;97004.78;5047964;28;19979;-76
2022/01/02 03:04:11;;;;;;;;;;;;;;;4.03;91.46;96995.25;5055478;28;19954;-76
2022/01/02 03:06:55;;;;;;;;;;;;;;;4.05;91.20;97010.63;5064388;28;19967;-76
2022/01/02 03:09:46;;;;;;;;;;;;;;;4.06;91.51;96999.28;5050097;28;20403;-76
2022/01/02 03:12:30;;;;;;;;;;;;;;;4.09;91.75;96993.75;5063117;28;20324;-76
2022/01/02 03:15:15;;;;;;;;;;;;;;;4.10;91.89;96990.22;5057191;28;19971;-76
2022/01/02 03:17:59;;;;;;;;;;;;;;;4.12;92.24;96990.06;5050418;28;19957;-75
2022/01/02 03:20:43;;;;;;;;;;;;;;;4.14;92.16;96988.91;5067309;28;19962;-75
2022/01/02 03:23:28;;;;;;;;;;;;;;;4.16;92.79;96986.13;5061094;28;19961;-76
2022/01/02 03:26:12;;;;;;;;;;;;;;;4.17;92.77;96973.00;5036641;28;19963;-76
2022/01/02 03:28:56;;;;;;;;;;;;;;;4.20;92.34;96980.47;5054661;28;19955;-75
2022/01/02 03:31:41;;;;;;;;;;;;;;;4.22;92.45;96975.09;5074931;28;19963;-75
2022/01/02 03:34:25;;;;;;;;;;;;;;;4.21;92.00;96982.06;5060773;28;19958;-76
2022/01/02 03:37:09;;;;;;;;;;;;;;;4.22;92.20;96975.09;5060318;28;19951;-75
2022/01/02 03:39:57;;;;;;;;;;;;;;;4.22;91.89;96973.31;5067754;28;19966;-75
2022/01/02 03:42:41;;;;;;;;;;;;;;;4.21;91.34;96960.50;5059875;28;20336;-76
2022/01/02 03:45:25;;;;;;;;;;;;;;;4.19;91.09;96972.84;5054510;28;19961;-77
2022/01/02 03:48:10;;;;;;;;;;;;;;;4.18;90.54;96960.81;5047336;28;19963;-76
2022/01/02 03:50:55;;;;;;;;;;;;;;;4.16;90.20;96960.16;5053221;28;20003;-76
2022/01/02 03:53:39;;;;;;;;;;;;;;;4.12;90.14;96953.72;5053818;28;20332;-76
2022/01/02 03:56:23;;;;;;;;;;;;;;;4.07;89.67;96955.03;5048018;28;19959;-76
2022/01/02 03:59:08;;;;;;;;;;;;;;;4.02;89.39;96953.88;5053537;28;19966;-76
2022/01/02 04:01:53;;;;;;;;;;;;;;;3.97;89.68;96943.16;5045539;28;19980;-76
2022/01/02 04:04:37;;;;;;;;;;;;;;;3.92;89.84;96943.66;5064948;28;20313;-76
2022/01/02 04:07:21;;;;;;;;;;;;;;;3.92;89.77;96945.44;5063406;28;19953;-75
2022/01/02 04:10:07;;;;;;;;;;;;;;;3.91;89.81;96936.06;5039667;28;19959;-76
2022/01/02 04:12:52;;;;;;;;;;;;;;;3.85;89.30;96925.34;5037889;28;20311;-76
2022/01/02 04:15:36;;;;;;;;;;;;;;;3.81;88.89;96925.84;5061363;28;19966;-77
2022/01/02 04:18:20;;;;;;;;;;;;;;;3.76;88.88;96934.13;5057175;28;19957;-76
2022/01/02 04:21:05;;;;;;;;;;;;;;;3.77;89.93;96922.75;5048511;28;19979;-76
2022/01/02 04:23:49;;;;;;;;;;;;;;;3.79;90.58;96918.22;5053895;28;19964;-75
2022/01/02 04:26:34;;;;;;;;;;;;;;;3.84;90.70;96928.09;5041110;28;19963;-75
2022/01/02 04:29:18;;;;;;;;;;;;;;;3.86;90.85;96920.97;5053757;28;19956;-75
2022/01/02 04:32:03;;;;;;;;;;;;;;;3.88;91.03;96913.81;5046010;28;20423;-76
2022/01/02 04:34:47;;;;;;;;;;;;;;;3.90;90.89;96917.06;5047342;28;19957;-76
2022/01/02 04:37:32;;;;;;;;;;;;;;;3.89;91.09;96907.66;5053226;28;19960;-76
2022/01/02 04:40:16;;;;;;;;;;;;;;;3.91;91.08;96905.72;5063059;28;19956;-76
2022/01/02 04:43:01;;;;;;;;;;;;;;;3.91;90.69;96903.13;5040606;28;20435;-76
2022/01/02 04:45:45;;;;;;;;;;;;;;;3.92;90.84;96907.31;5063642;28;19956;-76
2022/01/02 04:48:30;;;;;;;;;;;;;;;3.91;90.89;96902.31;5035499;28;19960;-76
2022/01/02 04:51:14;;;;;;;;;;;;;;;3.91;90.99;96891.94;5055089;28;19981;-76
2022/01/02 04:53:58;;;;;;;;;;;;;;;3.91;91.15;96904.91;5048819;28;19961;-76
2022/01/02 04:56:43;;;;;;;;;;;;;;;3.89;90.77;96899.09;5058679;28;19952;-76
2022/01/02 04:59:27;;;;;;;;;;;;;;;3.87;90.82;96888.88;5056333;28;19964;-76
2022/01/02 05:02:12;;;;;;;;;;;;;;;3.86;90.84;96893.25;5059310;28;19969;-76
2022/01/02 05:04:56;;;;;;;;;;;;;;;3.83;90.54;96888.38;5056522;28;19954;-76
2022/01/02 05:07:40;;;;;;;;;;;;;;;3.77;89.62;96890.81;5021631;28;19951;-76
2022/01/02 05:10:25;;;;;;;;;;;;;;;3.72;89.59;96883.53;5060140;28;19959;-76
2022/01/02 05:13:09;;;;;;;;;;;;;;;3.69;89.36;96883.84;5058589;28;20317;-75
2022/01/02 05:15:53;;;;;;;;;;;;;;;3.64;89.65;96889.53;5053689;28;19948;-75
2022/01/02 05:18:38;;;;;;;;;;;;;;;3.63;90.48;96882.72;5052771;28;20411;-76
2022/01/02 05:21:22;;;;;;;;;;;;;;;3.64;90.94;96886.94;5069673;28;19976;-75
2022/01/02 05:24:06;;;;;;;;;;;;;;;3.66;91.43;96879.00;5036516;28;19957;-75
2022/01/02 05:26:53;;;;;;;;;;;;;;;3.66;92.01;96887.59;5052924;28;19960;-75
2022/01/02 05:29:37;;;;;;;;;;;;;;;3.65;91.98;96883.38;5056632;28;19977;-76
2022/01/02 05:32:22;;;;;;;;;;;;;;;3.64;92.00;96886.94;5059296;28;19958;-76
2022/01/02 05:35:06;;;;;;;;;;;;;;;3.66;92.19;96890.19;5062366;28;19946;-75
2022/01/02 05:37:50;;;;;;;;;;;;;;;3.67;92.16;96880.59;5052064;28;19949;-76
2022/01/02 05:40:35;;;;;;;;;;;;;;;3.71;92.13;96883.69;5045934;28;19957;-78
2022/01/02 05:43:20;;;;;;;;;;;;;;;3.69;92.08;96870.06;5037779;28;20442;-76
2022/01/02 05:46:05;;;;;;;;;;;;;;;3.70;92.24;96863.94;5051118;28;19953;-76
2022/01/02 05:48:50;;;;;;;;;;;;;;;3.74;92.44;96878.16;5057853;28;19967;-76
2022/01/02 05:51:35;;;;;;;;;;;;;;;3.73;92.25;96866.97;5066398;28;19961;-75
2022/01/02 05:54:19;;;;;;;;;;;;;;;3.75;92.54;96859.03;5062711;28;20404;-76
2022/01/02 05:57:04;;;;;;;;;;;;;;;3.76;92.79;96853.69;5039588;28;19963;-76
2022/01/02 05:59:48;;;;;;;;;;;;;;;3.81;92.68;96856.59;5052856;28;19959;-75
2022/01/02 06:02:32;;;;;;;;;;;;;;;3.84;92.85;96856.28;5071776;28;19971;-76
2022/01/02 06:05:17;;;;;;;;;;;;;;;3.86;92.68;96854.34;5059976;28;20317;-74
2022/01/02 06:08:02;;;;;;;;;;;;;;;3.89;92.56;96850.59;5052919;28;19952;-74
2022/01/02 06:10:46;;;;;;;;;;;;;;;3.91;92.51;96851.25;5045594;28;20408;-74
2022/01/02 06:13:30;;;;;;;;;;;;;;;3.94;93.00;96848.28;5065830;28;19960;-75
2022/01/02 06:16:15;;;;;;;;;;;;;;;3.99;92.91;96852.97;5051191;28;19955;-76
2022/01/02 06:18:59;;;;;;;;;;;;;;;4.01;92.69;96853.63;5043746;28;19956;-74
2022/01/02 06:21:43;;;;;;;;;;;;;;;4.04;92.88;96855.91;5049843;28;20406;-74
2022/01/02 06:24:28;;;;;;;;;;;;;;;4.04;93.15;96848.91;5068969;28;19951;-74
2022/01/02 06:27:12;;;;;;;;;;;;;;;4.05;92.86;96841.94;5053447;28;19954;-75
2022/01/02 06:29:59;;;;;;;;;;;;;;;4.04;92.04;96833.34;5057788;28;20393;-74
2022/01/02 06:32:44;;;;;;;;;;;;;;;4.09;92.68;96837.22;5044461;28;19947;-74
2022/01/02 06:35:29;;;;;;;;;;;;;;;4.11;92.90;96841.28;5043467;28;19960;-74
2022/01/02 06:38:18;;;;;;;;;;;;;;;4.15;93.03;96837.38;5053930;28;20563;-78
2022/01/02 06:41:03;;;;;;;;;;;;;;;4.17;92.92;96843.19;5065040;28;19951;-80
2022/01/02 06:43:52;;;;;;;;;;;;;;;4.20;92.70;96842.06;5048456;28;19967;-74
2022/01/02 06:46:36;;;;;;;;;;;;;;;4.21;92.64;96849.69;5033868;28;19965;-74
2022/01/02 06:49:20;;;;;;;;;;;;;;;4.22;92.31;96845.28;5065472;28;19952;-74
2022/01/02 06:52:05;;;;;;;;;;;;;;;4.21;92.08;96828.09;5033855;28;19955;-74
2022/01/02 06:54:53;;;;;;;;;;;;;;;4.21;92.12;96825.50;5047775;28;20314;-74
2022/01/02 06:57:37;;;;;;;;;;;;;;;4.20;92.15;96821.28;5040530;28;20299;-74
2022/01/02 07:00:21;;;;;;;;;;;;;;;4.20;92.82;96826.47;5059380;28;19956;-75
2022/01/02 07:03:05;;;;;;;;;;;;;;;4.21;92.92;96822.91;5063012;28;19968;-75
2022/01/02 07:05:50;;;;;;;;;;;;;;;4.24;92.87;96822.56;5057586;28;19961;-74
2022/01/02 07:08:34;;;;;;;;;;;;;;;4.27;93.06;96815.25;5065639;28;19957;-74
2022/01/02 07:11:19;;;;;;;;;;;;;;;4.30;93.35;96823.69;5057143;28;19958;-74
2022/01/02 07:14:03;;;;;;;;;;;;;;;4.33;92.15;96816.38;5075581;28;20398;-74
2022/01/02 07:16:48;;;;;;;;;;;;;;;4.38;92.73;96821.06;5058274;28;19954;-75
2022/01/02 07:19:32;;;;;;;;;;;;;;;4.43;92.79;96813.56;5049763;28;20415;-75
2022/01/02 07:22:16;;;;;;;;;;;;;;;4.44;92.82;96815.19;5050912;28;19978;-75
2022/01/02 07:25:01;;;;;;;;;;;;;;;4.45;91.09;96801.22;5067296;28;19953;-77
2022/01/02 07:27:45;;;;;;;;;;;;;;;4.43;91.95;96805.78;5063215;28;19973;-74
2022/01/02 07:30:29;;;;;;;;;;;;;;;4.44;91.39;96810.81;5045987;28;20266;-74
2022/01/02 07:33:13;;;;;;;;;;;;;;;4.46;92.09;96795.84;5064560;28;19968;-76
2022/01/02 07:35:58;;;;;;;;;;;;;;;4.47;92.12;96799.25;5054713;28;19964;-75
2022/01/02 07:38:42;;;;;;;;;;;;;;;4.51;91.07;96815.31;5046536;28;19953;-74
2022/01/02 07:41:27;;;;;;;;;;;;;;;4.50;91.08;96809.31;5045168;28;19957;-76
2022/01/02 07:44:11;;;;;;;;;;;;;;;4.52;90.38;96811.75;5049331;28;19961;-76
2022/01/02 07:46:55;;;;;;;;;;;;;;;4.51;90.66;96818.72;5071837;28;19946;-78
2022/01/02 07:49:40;;;;;;;;;;;;;;;4.53;90.28;96802.97;5060836;28;19996;-77
2022/01/02 07:52:24;;;;;;;;;;;;;;;4.55;90.63;96814.00;5036154;28;19955;-76
2022/01/02 07:55:08;;;;;;;;;;;;;;;4.54;89.81;96812.41;5046144;28;20311;-77
2022/01/02 07:57:53;;;;;;;;;;;;;;;4.56;90.53;96803.44;5059159;28;19954;-76
2022/01/02 08:00:37;;;;;;;;;;;;;;;4.62;90.74;96813.16;5063395;28;19959;-78
2022/01/02 08:03:22;;;;;;;;;;;;;;;4.70;90.29;96803.69;5055389;28;19980;-78
2022/01/02 08:06:06;;;;;;;;;;;;;;;4.75;89.92;96811.78;5048154;28;19966;-78
2022/01/02 08:08:51;;;;;;;;;;;;;;;4.81;90.04;96806.72;5063204;28;19961;-77
2022/01/02 08:11:35;;;;;;;;;;;;;;;4.88;88.98;96802.44;5060101;28;19953;-78
2022/01/02 08:14:21;;;;;;;;;;;;;;;4.98;89.95;96817.00;5054569;28;19953;-75
2022/01/02 08:17:05;;;;;;;;;;;;;;;5.05;88.73;96805.72;5046291;28;20391;-74
2022/01/02 08:19:49;;;;;;;;;;;;;;;5.26;88.84;96804.25;5060944;28;19958;-78
2022/01/02 08:22:34;;;;;;;;;;;;;;;5.61;89.63;96807.22;5068520;28;19973;-73
2022/01/02 08:25:18;;;;;;;;;;;;;;;5.83;87.63;96813.31;5046690;28;20310;-73
2022/01/02 08:28:02;;;;;;;;;;;;;;;5.89;86.70;96810.00;5047756;28;19963;-74
2022/01/02 08:30:47;;;;;;;;;;;;;;;5.90;86.08;96799.44;5061059;28;20422;-74
2022/01/02 08:33:31;;;;;;;;;;;;;;;5.90;85.43;96794.22;5057310;28;19966;-76
2022/01/02 08:36:16;;;;;;;;;;;;;;;5.92;84.73;96795.81;5055531;28;19962;-74
2022/01/02 08:39:01;;;;;;;;;;;;;;;5.95;83.69;96795.50;5058140;28;20627;-77
2022/01/02 08:41:45;;;;;;;;;;;;;;;6.06;84.08;96795.06;5053457;28;20396;-74
2022/01/02 08:44:29;;;;;;;;;;;;;;;6.33;83.86;96798.81;5054525;28;19957;-74
2022/01/02 08:47:14;;;;;;;;;;;;;;;6.47;84.12;96799.78;5066922;28;19954;-74
2022/01/02 08:50:01;;;;;;;;;;;;;;;6.50;82.19;96802.00;5053759;28;19981;-74
2022/01/02 08:52:45;;;;;;;;;;;;;;;6.52;82.96;96796.63;5057841;28;19959;-75
2022/01/02 08:55:30;;;;;;;;;;;;;;;6.53;80.46;96804.25;5060914;28;19962;-74
2022/01/02 08:58:15;;;;;;;;;;;;;;;6.57;82.49;96804.69;5062289;28;19963;-74
2022/01/02 09:01:00;;;;;;;;;;;;;;;6.81;83.22;96803.53;5044631;28;19954;-75
2022/01/02 09:03:44;;;;;;;;;;;;;;;7.09;80.26;96791.38;5042096;28;19974;-75
2022/01/02 09:06:28;;;;;;;;;;;;;;;7.46;79.81;96797.31;5059604;28;19959;-75
2022/01/02 09:09:13;;;;;;;;;;;;;;;7.84;80.21;96794.34;5062671;28;20320;-75
2022/01/02 09:11:57;;;;;;;;;;;;;;;8.24;76.62;96802.41;5045729;28;19966;-76
2022/01/02 09:14:42;;;;;;;;;;;;;;;8.48;74.56;96790.69;5058369;28;20324;-76
2022/01/02 09:17:29;;;;;;;;;;;;;;;8.57;74.17;96801.75;5067566;28;19960;-76
2022/01/02 09:20:15;;;;;;;;;;;;;;;8.50;74.02;96808.75;5059381;28;19962;-76
2022/01/02 09:22:59;;;;;;;;;;;;;;;8.34;74.93;96804.66;5049119;28;19972;-76
2022/01/02 09:25:43;;;;;;;;;;;;;;;8.23;75.46;96806.03;5062715;28;19951;-76
2022/01/02 09:28:28;;;;;;;;;;;;;;;8.18;76.01;96794.53;5052187;28;20332;-76
2022/01/02 09:31:12;;;;;;;;;;;;;;;8.13;75.63;96795.13;5034857;28;19957;-75
2022/01/02 09:33:57;;;;;;;;;;;;;;;8.06;77.63;96802.94;5062496;28;19963;-76
2022/01/02 09:36:41;;;;;;;;;;;;;;;7.99;75.42;96802.06;5047125;28;19966;-76
2022/01/02 09:39:26;;;;;;;;;;;;;;;7.93;77.76;96816.69;5047939;28;19949;-76
2022/01/02 09:42:11;;;;;;;;;;;;;;;7.88;76.75;96805.22;5047137;28;19981;-76
2022/01/02 09:44:56;;;;;;;;;;;;;;;7.84;77.56;96819.66;5047426;28;20408;-75
2022/01/02 09:47:42;;;;;;;;;;;;;;;7.81;76.77;96820.84;5047062;28;19963;-75
2022/01/02 09:50:26;;;;;;;;;;;;;;;7.80;76.12;96814.00;5060703;28;19982;-76
2022/01/02 09:53:11;;;;;;;;;;;;;;;7.82;77.81;96819.03;5051564;28;19962;-75
2022/01/02 09:55:37;;;;;;;;;;;;;;;7.86;76.38;96796.78;5073164;28;20030;-76
2022/01/02 09:58:09;;;;;;;;;;;;;;;7.90;77.33;96798.81;5051098;28;19966;-75
2022/01/02 10:00:36;;;;;;;;;;;;;;;7.93;74.89;96810.66;5044798;28;19979;-75
2022/01/02 10:03:03;;;;;;;;;;;;;;;7.95;77.10;96803.44;5057442;28;20436;-76
2022/01/02 10:05:47;;;;;;;;;;;;;;;7.97;76.07;96793.63;5048580;28;20337;-76
2022/01/02 10:08:26;;;;;;;;;;;;;;;7.99;77.49;96799.44;5053970;28;19952;-75
2022/01/02 10:10:59;;;;;;;;;;;;;;;8.03;77.55;96812.94;5051451;28;20408;-76
2022/01/02 10:13:40;;;;;;;;;;;;;;;8.03;76.00;96803.28;5042847;28;19958;-76
2022/01/02 10:16:18;;;;;;;;;;;;;;;8.02;74.11;96796.47;5052360;28;19959;-76
2022/01/02 10:18:44;;;;;;;;;;;;;;;7.99;76.69;96786.41;5033594;28;19965;-76
2022/01/02 10:21:10;;;;;;;;;;;;;;;7.97;77.17;96777.94;5064273;28;19959;-75
2022/01/02 10:23:36;;;;;;;;;;;;;;;7.92;76.51;96773.31;5041885;28;19983;-75
2022/01/02 10:26:05;;;;;;;;;;;;;;;7.91;77.88;96771.69;5051413;28;19952;-76
2022/01/02 10:28:36;;;;;;;;;;;;;;;7.91;77.86;96769.06;5043476;28;19963;-75
2022/01/02 10:31:04;;;;;;;;;;;;;;;7.93;78.69;96764.47;5063605;28;20468;-76
2022/01/02 10:33:46;;;;;;;;;;;;;;;7.92;77.85;96759.44;5068244;28;19961;-75
2022/01/02 10:36:12;;;;;;;;;;;;;;;7.91;76.35;96760.44;5036982;28;20433;-76
2022/01/02 10:38:38;;;;;;;;;;;;;;;7.91;76.54;96781.31;5067012;28;19961;-76
2022/01/02 10:41:04;;;;;;;;;;;;;;;7.90;76.59;96774.50;5054379;28;19960;-76
2022/01/02 10:43:32;;;;;;;;;;;;;;;7.92;77.81;96773.31;5050988;28;20490;-76
2022/01/02 10:45:59;;;;;;;;;;;;;;;7.96;77.85;96783.34;5047632;28;19959;-76
2022/01/02 10:48:32;;;;;;;;;;;;;;;8.02;77.34;96793.84;5058282;28;19971;-76
2022/01/02 10:51:20;;;;;;;;;;;;;;;8.06;76.24;96796.88;5055520;28;19980;-75
2022/01/02 10:53:53;;;;;;;;;;;;;;;8.11;75.12;96787.47;5041361;28;19969;-75
2022/01/02 10:56:23;;;;;;;;;;;;;;;8.16;76.68;96781.66;5058869;28;19953;-75
2022/01/02 10:58:49;;;;;;;;;;;;;;;8.18;77.10;96784.88;5049310;28;19960;-75
2022/01/02 11:01:15;;;;;;;;;;;;;;;8.22;77.21;96790.53;5040064;28;20019;-75
2022/01/02 11:03:44;;;;;;;;;;;;;;;8.24;75.86;96785.91;5063228;28;19976;-76
2022/01/02 11:06:13;;;;;;;;;;;;;;;8.26;76.73;96770.84;5059590;28;19965;-75
2022/01/02 11:08:44;;;;;;;;;;;;;;;8.27;75.20;96772.44;5055997;28;19975;-74
2022/01/02 11:11:10;;;;;;;;;;;;;;;8.30;76.17;96765.03;5059989;28;19951;-75
2022/01/02 11:13:36;;;;;;;;;;;;;;;8.32;76.54;96765.66;5058333;28;19963;-76
2022/01/02 11:16:05;;;;;;;;;;;;;;;8.33;75.37;96763.84;5039786;28;20375;-75
2022/01/02 11:18:32;;;;;;;;;;;;;;;8.34;73.70;96758.41;5058856;28;19962;-76
2022/01/02 11:20:59;;;;;;;;;;;;;;;8.37;75.52;96772.91;5055444;28;19972;-76
2022/01/02 11:23:32;;;;;;;;;;;;;;;8.40;77.07;96776.91;5056863;28;19975;-75
2022/01/02 11:26:16;;;;;;;;;;;;;;;8.41;75.54;96787.22;5049966;28;19970;-75
2022/01/02 11:28:46;;;;;;;;;;;;;;;8.42;75.05;96781.00;5043593;28;19968;-76
2022/01/02 11:31:26;;;;;;;;;;;;;;;8.44;75.00;96784.22;5042817;28;19961;-75
2022/01/02 11:33:52;;;;;;;;;;;;;;;8.45;75.68;96788.44;5057691;28;19957;-78
2022/01/02 11:36:29;;;;;;;;;;;;;;;8.46;76.85;96781.41;5060859;28;20376;-76
2022/01/02 11:38:56;;;;;;;;;;;;;;;8.47;76.10;96749.84;5064591;28;19953;-77
2022/01/02 11:41:42;;;;;;;;;;;;;;;8.48;76.62;96769.78;5056645;28;19962;-79
2022/01/02 11:44:09;;;;;;;;;;;;;;;8.49;75.97;96773.19;5064724;28;19971;-76
2022/01/02 11:46:39;;;;;;;;;;;;;;;8.50;76.32;96775.59;5055410;28;19964;-76
2022/01/02 11:49:13;;;;;;;;;;;;;;;8.54;76.39;96779.41;5044165;28;20310;-76
2022/01/02 11:51:57;;;;;;;;;;;;;;;8.57;76.17;96767.78;5065090;28;19983;-76
2022/01/02 11:54:30;;;;;;;;;;;;;;;8.62;77.37;96764.56;5048584;28;20417;-77
2022/01/02 11:56:56;;;;;;;;;;;;;;;8.66;77.62;96771.03;5031061;28;19956;-76
2022/01/02 11:59:42;;;;;;;;;;;;;;;8.72;76.75;96749.31;5058205;28;19961;-76
2022/01/02 12:02:08;;;;;;;;;;;;;;;8.81;77.80;96737.66;5040971;28;19969;-76
2022/01/02 12:04:53;;;;;;;;;;;;;;;8.96;74.73;96732.22;5064902;28;19972;-77
2022/01/02 12:07:37;;;;;;;;;;;;;;;9.20;72.99;96707.28;5035979;28;19972;-76
2022/01/02 12:10:26;;;;;;;;;;;;;;;9.48;67.55;96664.38;5048299;28;19953;-76
2022/01/02 12:13:13;;;;;;;;;;;;;;;9.75;65.41;96647.56;5055421;28;19964;-76
2022/01/02 12:15:39;;;;;;;;;;;;;;;10.01;62.24;96634.56;5062071;28;20029;-76
2022/01/02 12:18:19;;;;;;;;;;;;;;;10.23;62.08;96614.09;5048432;28;19953;-77
2022/01/02 12:20:51;;;;;;;;;;;;;;;10.52;63.60;96628.41;5056443;28;19961;-76
2022/01/02 12:23:41;;;;;;;;;;;;;;;10.76;61.13;96606.66;5057659;28;19964;-79
2022/01/02 12:26:09;;;;;;;;;;;;;;;10.96;64.29;96645.84;5040169;28;19961;-77
2022/01/02 12:28:37;;;;;;;;;;;;;;;11.09;61.39;96617.88;5065589;28;20343;-77
2022/01/02 12:31:04;;;;;;;;;;;;;;;11.16;61.99;96626.50;5051832;28;19959;-78
2022/01/02 12:33:30;;;;;;;;;;;;;;;11.23;59.38;96593.09;5054336;28;19976;-77
2022/01/02 12:35:57;;;;;;;;;;;;;;;11.33;59.83;96592.59;5073773;28;19971;-77
2022/01/02 12:38:23;;;;;;;;;;;;;;;11.41;61.54;96612.50;5047115;28;19963;-77
2022/01/02 12:40:53;;;;;;;;;;;;;;;11.48;60.85;96600.91;5055521;28;20034;-76
2022/01/02 12:43:25;;;;;;;;;;;;;;;11.48;57.76;96577.25;5061627;28;19975;-76
2022/01/02 12:45:54;;;;;;;;;;;;;;;11.50;61.35;96596.22;5060638;28;19962;-76
2022/01/02 12:48:33;;;;;;;;;;;;;;;11.52;58.02;96569.75;5057390;28;19965;-77
2022/01/02 12:51:09;;;;;;;;;;;;;;;11.54;59.31;96586.88;5040910;28;20065;-76
2022/01/02 12:53:35;;;;;;;;;;;;;;;11.57;61.67;96596.97;5042752;28;19971;-77
2022/01/02 12:56:01;;;;;;;;;;;;;;;11.58;57.15;96553.13;5061782;28;19970;-76
2022/01/02 12:58:31;;;;;;;;;;;;;;;11.59;57.19;96544.22;5054863;28;19960;-78
2022/01/02 13:01:04;;;;;;;;;;;;;;;11.60;59.93;96579.97;5070741;28;19964;-77
2022/01/02 13:03:34;;;;;;;;;;;;;;;11.62;60.49;96571.88;5055192;28;19967;-77
2022/01/02 13:06:00;;;;;;;;;;;;;;;11.60;58.04;96540.56;5069288;28;19976;-77
2022/01/02 13:08:26;;;;;;;;;;;;;;;11.58;59.62;96538.16;5056108;28;20414;-77
2022/01/02 13:10:52;;;;;;;;;;;;;;;11.60;56.35;96500.38;5051643;28;19994;-77
2022/01/02 13:13:31;;;;;;;;;;;;;;;11.62;57.97;96496.50;5034833;28;19960;-77
2022/01/02 13:16:07;;;;;;;;;;;;;;;11.62;55.62;96493.06;5056629;28;19968;-77
2022/01/02 13:18:33;;;;;;;;;;;;;;;11.61;56.77;96508.00;5057147;28;19964;-77
2022/01/02 13:21:00;;;;;;;;;;;;;;;11.63;58.42;96519.09;5064316;28;19960;-77
2022/01/02 13:23:26;;;;;;;;;;;;;;;11.65;58.86;96517.03;5067843;28;20368;-79
2022/01/02 13:25:52;;;;;;;;;;;;;;;11.68;59.34;96510.56;5044803;28;19968;-77
2022/01/02 13:28:18;;;;;;;;;;;;;;;11.69;59.67;96506.91;5073467;28;20033;-77
2022/01/02 13:30:54;;;;;;;;;;;;;;;11.69;55.63;96475.38;5041051;28;20362;-77
2022/01/02 13:33:22;;;;;;;;;;;;;;;11.71;57.18;96484.63;5057094;28;19961;-77
2022/01/02 13:35:48;;;;;;;;;;;;;;;11.74;57.36;96488.66;5069519;28;19980;-77
2022/01/02 13:38:14;;;;;;;;;;;;;;;11.77;57.52;96491.63;5046429;28;19963;-77
2022/01/02 13:40:40;;;;;;;;;;;;;;;11.77;59.03;96507.38;5058379;28;19970;-77
2022/01/02 13:43:10;;;;;;;;;;;;;;;11.77;56.41;96482.94;5043072;28;20432;-77
2022/01/02 13:45:43;;;;;;;;;;;;;;;11.78;57.63;96503.75;5073189;28;19956;-77
2022/01/02 13:48:12;;;;;;;;;;;;;;;11.75;55.95;96475.28;5070950;28;20323;-78
2022/01/02 13:50:45;;;;;;;;;;;;;;;11.76;59.59;96516.31;5043326;28;19982;-77
2022/01/02 13:53:16;;;;;;;;;;;;;;;11.76;58.93;96507.63;5049792;28;19957;-77
2022/01/02 13:55:44;;;;;;;;;;;;;;;11.75;55.56;96477.91;5056691;28;19963;-77
2022/01/02 13:58:16;;;;;;;;;;;;;;;11.72;58.00;96502.00;5065942;28;19959;-77
2022/01/02 14:00:44;;;;;;;;;;;;;;;11.71;59.98;96536.38;5043392;28;19965;-77
2022/01/02 14:03:23;;;;;;;;;;;;;;;11.65;58.80;96527.53;5046802;28;19968;-77
2022/01/02 14:05:50;;;;;;;;;;;;;;;11.60;58.89;96537.94;5046694;28;19960;-77
2022/01/02 14:08:17;;;;;;;;;;;;;;;11.56;59.47;96547.28;5074676;28;19955;-77